Terminal Aerodrome Forecast
Issued by NWS

Home | Current Version | Previous Version | Text Only | Print | Product List | Glossary On
Versions: 1 2 3 4 5 6 7 8 9 10 11 12 13 14 15 16 17 18 19 20 21 22 23 24
254
FTUS43 KDLH 181142
TAFHYR
TAF
KHYR 181142Z 1812/1912 00000KT 6SM BR OVC005
     FM181400 30005KT P6SM BKN035
     FM190200 VRB03KT P6SM SCT200
     FM190900 00000KT 4SM BR FEW080
     FM191000 00000KT 2SM BR FEW035=

USA.gov is the U.S. government's official web portal to all federal, state and local government web resources and services.